sensor_id;sensor_type;location;lat;lon;timestamp;P1;durP1;ratioP1;P2;durP2;ratioP2
1533;SDS011;760;48.822;9.304;2023-03-30T05:04:53;4.63;;;1.90;;
1533;SDS011;760;48.822;9.304;2023-03-30T05:07:18;3.50;;;3.23;;
1533;SDS011;760;48.822;9.304;2023-03-30T05:09:45;7.80;;;1.53;;
1533;SDS011;760;48.822;9.304;2023-03-30T05:12:11;7.03;;;2.70;;
1533;SDS011;760;48.822;9.304;2023-03-30T05:14:36;1.30;;;1.10;;
1533;SDS011;760;48.822;9.304;2023-03-30T05:17:02;9.33;;;2.23;;
1533;SDS011;760;48.822;9.304;2023-03-30T05:19:27;2.83;;;1.67;;
1533;SDS011;760;48.822;9.304;2023-03-30T05:21:53;3.60;;;2.50;;
1533;SDS011;760;48.822;9.304;2023-03-30T05:24:19;5.83;;;2.43;;
1533;SDS011;760;48.822;9.304;2023-03-30T05:26:44;2.77;;;1.93;;
1533;SDS011;760;48.822;9.304;2023-03-30T05:29:10;5.53;;;1.83;;
1533;SDS011;760;48.822;9.304;2023-03-30T05:31:36;1.53;;;1.43;;
1533;SDS011;760;48.822;9.304;2023-03-30T05:34:01;6.47;;;2.50;;
1533;SDS011;760;48.822;9.304;2023-03-30T05:36:27;3.70;;;1.97;;
1533;SDS011;760;48.822;9.304;2023-03-30T05:38:53;3.70;;;1.50;;
1533;SDS011;760;48.822;9.304;2023-03-30T05:41:18;4.47;;;2.87;;
1533;SDS011;760;48.822;9.304;2023-03-30T05:43:44;3.63;;;2.20;;
1533;SDS011;760;48.822;9.304;2023-03-30T05:46:11;2.67;;;2.10;;
1533;SDS011;760;48.822;9.304;2023-03-30T05:48:37;5.97;;;1.97;;
1533;SDS011;760;48.822;9.304;2023-03-30T05:51:03;7.83;;;2.23;;
1533;SDS011;760;48.822;9.304;2023-03-30T05:53:28;1.90;;;1.80;;
1533;SDS011;760;48.822;9.304;2023-03-30T05:55:54;5.30;;;2.47;;
1533;SDS011;760;48.822;9.304;2023-03-30T05:58:20;3.50;;;3.20;;
1533;SDS011;760;48.822;9.304;2023-03-30T06:00:45;2.83;;;2.10;;
1533;SDS011;760;48.822;9.304;2023-03-30T06:03:13;3.80;;;2.00;;
1533;SDS011;760;48.822;9.304;2023-03-30T06:05:39;4.90;;;2.37;;
1533;SDS011;760;48.822;9.304;2023-03-30T06:08:07;9.83;;;2.80;;
1533;SDS011;760;48.822;9.304;2023-03-30T06:10:34;6.77;;;2.37;;
1533;SDS011;760;48.822;9.304;2023-03-30T06:13:00;8.40;;;2.63;;
1533;SDS011;760;48.822;9.304;2023-03-30T06:15:26;1.83;;;1.73;;
1533;SDS011;760;48.822;9.304;2023-03-30T06:17:52;3.30;;;1.93;;
1533;SDS011;760;48.822;9.304;2023-03-30T06:20:19;6.90;;;1.93;;
1533;SDS011;760;48.822;9.304;2023-03-30T06:22:46;3.70;;;2.10;;
1533;SDS011;760;48.822;9.304;2023-03-30T06:25:12;4.00;;;1.70;;
1533;SDS011;760;48.822;9.304;2023-03-30T06:27:38;9.80;;;2.37;;
1533;SDS011;760;48.822;9.304;2023-03-30T06:30:04;1.40;;;1.30;;
1533;SDS011;760;48.822;9.304;2023-03-30T06:32:30;8.90;;;1.97;;
1533;SDS011;760;48.822;9.304;2023-03-30T06:34:56;3.20;;;2.30;;
1533;SDS011;760;48.822;9.304;2023-03-30T06:37:21;5.20;;;3.30;;
1533;SDS011;760;48.822;9.304;2023-03-30T06:39:47;3.80;;;2.40;;
1533;SDS011;760;48.822;9.304;2023-03-30T06:42:13;5.10;;;2.40;;
1533;SDS011;760;48.822;9.304;2023-03-30T06:44:38;4.43;;;2.37;;
1533;SDS011;760;48.822;9.304;2023-03-30T06:47:04;4.63;;;2.03;;
1533;SDS011;760;48.822;9.304;2023-03-30T06:49:30;4.63;;;2.50;;
1533;SDS011;760;48.822;9.304;2023-03-30T06:51:57;4.57;;;2.43;;
1533;SDS011;760;48.822;9.304;2023-03-30T06:54:22;5.87;;;2.73;;
1533;SDS011;760;48.822;9.304;2023-03-30T06:56:48;6.50;;;2.90;;
1533;SDS011;760;48.822;9.304;2023-03-30T06:59:14;13.10;;;2.83;;
1533;SDS011;760;48.822;9.304;2023-03-30T07:01:40;6.30;;;2.87;;
1533;SDS011;760;48.822;9.304;2023-03-30T07:04:07;10.57;;;2.73;;
1533;SDS011;760;48.822;9.304;2023-03-30T07:06:33;4.97;;;2.90;;
1533;SDS011;760;48.822;9.304;2023-03-30T07:08:59;4.83;;;2.60;;
1533;SDS011;760;48.822;9.304;2023-03-30T07:11:25;8.40;;;2.70;;
1533;SDS011;760;48.822;9.304;2023-03-30T07:13:51;3.87;;;1.83;;
1533;SDS011;760;48.822;9.304;2023-03-30T07:16:20;6.40;;;1.70;;
1533;SDS011;760;48.822;9.304;2023-03-30T07:18:46;9.30;;;3.27;;
1533;SDS011;760;48.822;9.304;2023-03-30T07:21:11;6.17;;;2.50;;
1533;SDS011;760;48.822;9.304;2023-03-30T07:23:37;4.87;;;3.23;;
1533;SDS011;760;48.822;9.304;2023-03-30T07:26:03;7.50;;;2.33;;
1533;SDS011;760;48.822;9.304;2023-03-30T07:28:29;7.13;;;1.83;;
1533;SDS011;760;48.822;9.304;2023-03-30T07:31:01;6.50;;;2.50;;
1533;SDS011;760;48.822;9.304;2023-03-30T07:33:35;7.10;;;4.90;;
1533;SDS011;760;48.822;9.304;2023-03-30T07:36:01;4.13;;;2.70;;
1533;SDS011;760;48.822;9.304;2023-03-30T07:38:28;5.20;;;2.40;;
1533;SDS011;760;48.822;9.304;2023-03-30T07:40:54;4.30;;;2.47;;
1533;SDS011;760;48.822;9.304;2023-03-30T07:43:20;5.23;;;2.90;;
1533;SDS011;760;48.822;9.304;2023-03-30T07:45:46;4.57;;;2.60;;
1533;SDS011;760;48.822;9.304;2023-03-30T07:48:11;4.10;;;2.23;;
1533;SDS011;760;48.822;9.304;2023-03-30T07:50:37;4.57;;;2.00;;
1533;SDS011;760;48.822;9.304;2023-03-30T07:53:03;3.70;;;2.20;;
1533;SDS011;760;48.822;9.304;2023-03-30T07:55:29;3.10;;;2.50;;
1533;SDS011;760;48.822;9.304;2023-03-30T07:57:54;3.67;;;1.90;;
1533;SDS011;760;48.822;9.304;2023-03-30T08:00:21;2.33;;;2.23;;
1533;SDS011;760;48.822;9.304;2023-03-30T08:02:47;3.93;;;2.33;;
1533;SDS011;760;48.822;9.304;2023-03-30T08:05:13;5.10;;;1.73;;
1533;SDS011;760;48.822;9.304;2023-03-30T08:07:39;2.77;;;2.30;;
1533;SDS011;760;48.822;9.304;2023-03-30T08:10:06;2.70;;;2.10;;
1533;SDS011;760;48.822;9.304;2023-03-30T08:12:32;3.27;;;2.37;;
1533;SDS011;760;48.822;9.304;2023-03-30T08:14:58;8.77;;;2.43;;
1533;SDS011;760;48.822;9.304;2023-03-30T08:17:25;3.73;;;2.77;;
1533;SDS011;760;48.822;9.304;2023-03-30T08:19:51;8.63;;;2.33;;
1533;SDS011;760;48.822;9.304;2023-03-30T08:22:16;3.10;;;2.30;;
1533;SDS011;760;48.822;9.304;2023-03-30T08:24:42;2.53;;;2.30;;
1533;SDS011;760;48.822;9.304;2023-03-30T08:27:08;4.33;;;2.60;;
1533;SDS011;760;48.822;9.304;2023-03-30T08:29:34;6.87;;;2.33;;
1533;SDS011;760;48.822;9.304;2023-03-30T08:32:02;2.57;;;2.03;;
1533;SDS011;760;48.822;9.304;2023-03-30T08:34:28;2.70;;;2.17;;
1533;SDS011;760;48.822;9.304;2023-03-30T08:36:54;4.50;;;2.83;;
1533;SDS011;760;48.822;9.304;2023-03-30T08:39:22;11.50;;;2.67;;
1533;SDS011;760;48.822;9.304;2023-03-30T08:41:52;3.80;;;2.70;;
1533;SDS011;760;48.822;9.304;2023-03-30T08:44:31;3.20;;;2.27;;
1533;SDS011;760;48.822;9.304;2023-03-30T08:47:03;3.00;;;2.57;;
1533;SDS011;760;48.822;9.304;2023-03-30T08:49:34;3.53;;;2.43;;
1533;SDS011;760;48.822;9.304;2023-03-30T08:52:24;2.40;;;2.20;;
1533;SDS011;760;48.822;9.304;2023-03-30T08:54:50;3.03;;;2.07;;
1533;SDS011;760;48.822;9.304;2023-03-30T08:57:37;5.93;;;2.57;;
1533;SDS011;760;48.822;9.304;2023-03-30T09:03:21;2.53;;;2.33;;
1533;SDS011;760;48.822;9.304;2023-03-30T09:06:32;5.13;;;2.63;;
1533;SDS011;760;48.822;9.304;2023-03-30T09:09:10;3.13;;;2.23;;
1533;SDS011;760;48.822;9.304;2023-03-30T09:11:38;5.13;;;2.67;;
1533;SDS011;760;48.822;9.304;2023-03-30T09:14:05;2.60;;;2.00;;
1533;SDS011;760;48.822;9.304;2023-03-30T09:16:48;1.77;;;1.67;;
1533;SDS011;760;48.822;9.304;2023-03-30T09:19:21;1.87;;;1.77;;
1533;SDS011;760;48.822;9.304;2023-03-30T09:21:55;2.33;;;2.13;;
1533;SDS011;760;48.822;9.304;2023-03-30T09:24:24;5.90;;;2.40;;
1533;SDS011;760;48.822;9.304;2023-03-30T09:26:57;1.77;;;1.67;;
1533;SDS011;760;48.822;9.304;2023-03-30T09:29:31;1.47;;;1.33;;
1533;SDS011;760;48.822;9.304;2023-03-30T09:32:32;1.30;;;1.30;;
1533;SDS011;760;48.822;9.304;2023-03-30T09:35:08;2.50;;;2.10;;
1533;SDS011;760;48.822;9.304;2023-03-30T09:37:38;1.90;;;1.80;;
1533;SDS011;760;48.822;9.304;2023-03-30T09:40:39;3.00;;;2.00;;
1533;SDS011;760;48.822;9.304;2023-03-30T09:43:15;2.13;;;1.93;;
1533;SDS011;760;48.822;9.304;2023-03-30T09:45:52;2.67;;;1.73;;
1533;SDS011;760;48.822;9.304;2023-03-30T09:48:20;2.83;;;1.97;;
1533;SDS011;760;48.822;9.304;2023-03-30T09:50:46;2.10;;;1.90;;
1533;SDS011;760;48.822;9.304;2023-03-30T09:55:58;1.60;;;1.50;;
1533;SDS011;760;48.822;9.304;2023-03-30T09:58:29;1.80;;;1.43;;
1533;SDS011;760;48.822;9.304;2023-03-30T10:01:04;2.13;;;1.97;;
1533;SDS011;760;48.822;9.304;2023-03-30T10:03:38;1.70;;;1.60;;
1533;SDS011;760;48.822;9.304;2023-03-30T10:08:48;4.23;;;2.07;;
1533;SDS011;760;48.822;9.304;2023-03-30T10:11:18;1.77;;;1.67;;
1533;SDS011;760;48.822;9.304;2023-03-30T10:13:56;1.90;;;1.80;;
1533;SDS011;760;48.822;9.304;2023-03-30T10:16:26;2.00;;;1.90;;
1533;SDS011;760;48.822;9.304;2023-03-30T10:19:01;2.50;;;2.30;;
1533;SDS011;760;48.822;9.304;2023-03-30T10:21:38;2.43;;;2.23;;
1533;SDS011;760;48.822;9.304;2023-03-30T10:26:42;1.63;;;1.53;;
1533;SDS011;760;48.822;9.304;2023-03-30T10:29:11;3.07;;;1.90;;
1533;SDS011;760;48.822;9.304;2023-03-30T10:31:39;1.77;;;1.67;;
1533;SDS011;760;48.822;9.304;2023-03-30T10:34:14;3.90;;;1.90;;
1533;SDS011;760;48.822;9.304;2023-03-30T10:36:52;1.97;;;1.60;;
1533;SDS011;760;48.822;9.304;2023-03-30T10:39:26;2.17;;;1.70;;
1533;SDS011;760;48.822;9.304;2023-03-30T10:42:01;2.73;;;2.07;;
1533;SDS011;760;48.822;9.304;2023-03-30T10:44:36;2.40;;;2.10;;
1533;SDS011;760;48.822;9.304;2023-03-30T10:47:27;2.10;;;2.00;;
1533;SDS011;760;48.822;9.304;2023-03-30T10:50:23;1.97;;;1.77;;
1533;SDS011;760;48.822;9.304;2023-03-30T11:07:02;1.70;;;1.60;;
1533;SDS011;760;48.822;9.304;2023-03-30T11:09:36;2.40;;;2.20;;
1533;SDS011;760;48.822;9.304;2023-03-30T11:12:06;2.73;;;2.53;;
1533;SDS011;760;48.822;9.304;2023-03-30T11:17:11;2.00;;;1.87;;
1533;SDS011;760;48.822;9.304;2023-03-30T11:19:54;1.93;;;1.83;;
1533;SDS011;760;48.822;9.304;2023-03-30T11:22:33;7.17;;;2.47;;
1533;SDS011;760;48.822;9.304;2023-03-30T11:25:08;3.00;;;2.40;;
1533;SDS011;760;48.822;9.304;2023-03-30T11:30:32;2.57;;;2.00;;
1533;SDS011;760;48.822;9.304;2023-03-30T11:36:25;3.27;;;2.57;;
1533;SDS011;760;48.822;9.304;2023-03-30T11:39:03;2.70;;;1.80;;
1533;SDS011;760;48.822;9.304;2023-03-30T11:41:47;5.27;;;1.90;;
1533;SDS011;760;48.822;9.304;2023-03-30T11:44:19;4.27;;;1.97;;
1533;SDS011;760;48.822;9.304;2023-03-30T11:49:27;5.67;;;2.43;;
1533;SDS011;760;48.822;9.304;2023-03-30T12:00:26;1.63;;;1.53;;
1533;SDS011;760;48.822;9.304;2023-03-30T12:06:07;2.20;;;1.60;;
1533;SDS011;760;48.822;9.304;2023-03-30T12:08:43;2.30;;;1.63;;
1533;SDS011;760;48.822;9.304;2023-03-30T12:11:26;2.13;;;1.93;;
1533;SDS011;760;48.822;9.304;2023-03-30T12:14:06;3.13;;;2.00;;
1533;SDS011;760;48.822;9.304;2023-03-30T12:16:58;3.40;;;2.60;;
1533;SDS011;760;48.822;9.304;2023-03-30T12:19:37;3.07;;;2.30;;
1533;SDS011;760;48.822;9.304;2023-03-30T12:22:13;2.10;;;2.00;;
1533;SDS011;760;48.822;9.304;2023-03-30T12:24:49;2.53;;;2.20;;
1533;SDS011;760;48.822;9.304;2023-03-30T12:27:20;2.60;;;1.70;;
1533;SDS011;760;48.822;9.304;2023-03-30T12:29:50;1.83;;;1.73;;
1533;SDS011;760;48.822;9.304;2023-03-30T12:32:18;2.37;;;2.17;;
1533;SDS011;760;48.822;9.304;2023-03-30T12:34:51;2.37;;;2.27;;
1533;SDS011;760;48.822;9.304;2023-03-30T12:37:18;2.60;;;2.40;;
1533;SDS011;760;48.822;9.304;2023-03-30T12:40:13;4.37;;;4.17;;
1533;SDS011;760;48.822;9.304;2023-03-30T12:43:22;4.57;;;2.33;;
1533;SDS011;760;48.822;9.304;2023-03-30T12:46:49;2.07;;;1.70;;
1533;SDS011;760;48.822;9.304;2023-03-30T12:49:02;3.30;;;2.17;;
1533;SDS011;760;48.822;9.304;2023-03-30T12:51:42;2.80;;;2.47;;
1533;SDS011;760;48.822;9.304;2023-03-30T12:56:46;3.90;;;2.40;;
1533;SDS011;760;48.822;9.304;2023-03-30T13:02:30;2.70;;;2.50;;
1533;SDS011;760;48.822;9.304;2023-03-30T13:05:22;3.63;;;2.60;;
1533;SDS011;760;48.822;9.304;2023-03-30T13:07:51;2.60;;;2.40;;
1533;SDS011;760;48.822;9.304;2023-03-30T13:12:57;3.07;;;2.53;;
1533;SDS011;760;48.822;9.304;2023-03-30T13:15:30;2.07;;;1.87;;
1533;SDS011;760;48.822;9.304;2023-03-30T13:18:00;2.20;;;2.00;;
1533;SDS011;760;48.822;9.304;2023-03-30T13:20:35;4.20;;;2.27;;
1533;SDS011;760;48.822;9.304;2023-03-30T13:28:35;6.17;;;2.47;;
1533;SDS011;760;48.822;9.304;2023-03-30T13:31:33;2.40;;;2.20;;
1533;SDS011;760;48.822;9.304;2023-03-30T13:36:35;1.63;;;1.53;;
1533;SDS011;760;48.822;9.304;2023-03-30T13:39:12;2.57;;;2.33;;
1533;SDS011;760;48.822;9.304;2023-03-30T13:44:43;1.30;;;1.23;;
1533;SDS011;760;48.822;9.304;2023-03-30T13:49:57;1.67;;;1.57;;
1533;SDS011;760;48.822;9.304;2023-03-30T13:52:31;1.83;;;1.63;;
1533;SDS011;760;48.822;9.304;2023-03-30T13:54:59;7.33;;;2.03;;
1533;SDS011;760;48.822;9.304;2023-03-30T13:57:32;1.60;;;1.50;;
1533;SDS011;760;48.822;9.304;2023-03-30T14:00:19;1.63;;;1.53;;
1533;SDS011;760;48.822;9.304;2023-03-30T14:02:48;2.93;;;2.10;;
1533;SDS011;760;48.822;9.304;2023-03-30T14:05:21;3.93;;;2.03;;
1533;SDS011;760;48.822;9.304;2023-03-30T14:07:49;4.83;;;2.30;;
1533;SDS011;760;48.822;9.304;2023-03-30T14:10:18;2.40;;;1.80;;
1533;SDS011;760;48.822;9.304;2023-03-30T14:12:46;2.27;;;2.07;;
1533;SDS011;760;48.822;9.304;2023-03-30T14:17:51;4.20;;;2.13;;
1533;SDS011;760;48.822;9.304;2023-03-30T14:22:50;2.50;;;1.80;;
1533;SDS011;760;48.822;9.304;2023-03-30T14:25:25;1.70;;;1.60;;
1533;SDS011;760;48.822;9.304;2023-03-30T14:28:04;3.97;;;1.83;;
1533;SDS011;760;48.822;9.304;2023-03-30T14:30:49;2.97;;;2.13;;
1533;SDS011;760;48.822;9.304;2023-03-30T14:33:17;1.53;;;1.47;;
1533;SDS011;760;48.822;9.304;2023-03-30T14:35:44;2.87;;;1.87;;
1533;SDS011;760;48.822;9.304;2023-03-30T14:38:14;1.50;;;1.40;;
1533;SDS011;760;48.822;9.304;2023-03-30T14:40:51;1.90;;;1.57;;
1533;SDS011;760;48.822;9.304;2023-03-30T14:43:22;1.70;;;1.60;;
1533;SDS011;760;48.822;9.304;2023-03-30T14:45:51;2.20;;;1.70;;
1533;SDS011;760;48.822;9.304;2023-03-30T14:48:42;3.53;;;1.27;;
1533;SDS011;760;48.822;9.304;2023-03-30T14:53:58;2.23;;;1.60;;
1533;SDS011;760;48.822;9.304;2023-03-30T14:56:24;1.53;;;1.30;;
1533;SDS011;760;48.822;9.304;2023-03-30T14:58:51;2.40;;;1.40;;
1533;SDS011;760;48.822;9.304;2023-03-30T15:01:21;1.77;;;1.67;;
1533;SDS011;760;48.822;9.304;2023-03-30T15:03:50;1.40;;;1.30;;
1533;SDS011;760;48.822;9.304;2023-03-30T15:06:19;3.43;;;1.77;;
1533;SDS011;760;48.822;9.304;2023-03-30T15:08:48;1.03;;;1.03;;
1533;SDS011;760;48.822;9.304;2023-03-30T15:11:20;1.63;;;0.93;;
1533;SDS011;760;48.822;9.304;2023-03-30T15:13:50;1.20;;;1.20;;
1533;SDS011;760;48.822;9.304;2023-03-30T15:16:18;1.20;;;1.10;;
1533;SDS011;760;48.822;9.304;2023-03-30T15:18:48;2.10;;;0.97;;
1533;SDS011;760;48.822;9.304;2023-03-30T15:21:16;5.13;;;1.40;;
1533;SDS011;760;48.822;9.304;2023-03-30T15:23:44;1.63;;;1.30;;
1533;SDS011;760;48.822;9.304;2023-03-30T15:26:12;2.10;;;1.37;;
1533;SDS011;760;48.822;9.304;2023-03-30T15:28:42;1.57;;;1.43;;
1533;SDS011;760;48.822;9.304;2023-03-30T15:31:20;1.37;;;1.27;;
1533;SDS011;760;48.822;9.304;2023-03-30T15:33:48;1.27;;;1.17;;
1533;SDS011;760;48.822;9.304;2023-03-30T15:36:23;4.67;;;1.57;;
1533;SDS011;760;48.822;9.304;2023-03-30T15:38:51;1.40;;;1.30;;
1533;SDS011;760;48.822;9.304;2023-03-30T15:41:21;0.93;;;0.93;;
1533;SDS011;760;48.822;9.304;2023-03-30T15:43:55;2.33;;;1.80;;
1533;SDS011;760;48.822;9.304;2023-03-30T15:46:35;2.30;;;1.87;;
1533;SDS011;760;48.822;9.304;2023-03-30T15:49:01;1.67;;;1.57;;
1533;SDS011;760;48.822;9.304;2023-03-30T15:51:30;1.37;;;1.27;;
1533;SDS011;760;48.822;9.304;2023-03-30T15:56:37;1.40;;;1.30;;
1533;SDS011;760;48.822;9.304;2023-03-30T15:59:09;3.13;;;2.50;;
1533;SDS011;760;48.822;9.304;2023-03-30T16:01:52;1.53;;;1.43;;
1533;SDS011;760;48.822;9.304;2023-03-30T16:04:20;4.37;;;2.37;;
1533;SDS011;760;48.822;9.304;2023-03-30T16:06:47;1.50;;;1.40;;
1533;SDS011;760;48.822;9.304;2023-03-30T16:09:13;1.73;;;1.63;;
1533;SDS011;760;48.822;9.304;2023-03-30T16:11:39;1.53;;;1.13;;
1533;SDS011;760;48.822;9.304;2023-03-30T16:14:06;1.03;;;1.03;;
1533;SDS011;760;48.822;9.304;2023-03-30T16:16:36;1.60;;;1.50;;
1533;SDS011;760;48.822;9.304;2023-03-30T16:19:02;2.57;;;1.30;;
1533;SDS011;760;48.822;9.304;2023-03-30T16:21:27;3.13;;;1.13;;
1533;SDS011;760;48.822;9.304;2023-03-30T16:23:53;1.30;;;1.30;;
1533;SDS011;760;48.822;9.304;2023-03-30T16:26:18;3.07;;;1.37;;
1533;SDS011;760;48.822;9.304;2023-03-30T16:28:44;1.30;;;1.03;;
1533;SDS011;760;48.822;9.304;2023-03-30T16:31:19;1.17;;;1.07;;
1533;SDS011;760;48.822;9.304;2023-03-30T16:33:46;1.30;;;1.07;;
1533;SDS011;760;48.822;9.304;2023-03-30T16:36:13;1.00;;;0.90;;
1533;SDS011;760;48.822;9.304;2023-03-30T16:38:41;1.33;;;0.80;;
1533;SDS011;760;48.822;9.304;2023-03-30T16:41:15;1.30;;;0.93;;
1533;SDS011;760;48.822;9.304;2023-03-30T16:43:43;1.90;;;1.00;;
1533;SDS011;760;48.822;9.304;2023-03-30T16:46:13;8.17;;;0.97;;
1533;SDS011;760;48.822;9.304;2023-03-30T16:48:41;1.40;;;0.83;;
1533;SDS011;760;48.822;9.304;2023-03-30T16:51:08;1.60;;;1.17;;
1533;SDS011;760;48.822;9.304;2023-03-30T16:53:35;2.00;;;1.13;;
1533;SDS011;760;48.822;9.304;2023-03-30T16:56:01;0.80;;;0.80;;
1533;SDS011;760;48.822;9.304;2023-03-30T16:58:26;1.27;;;0.87;;
1533;SDS011;760;48.822;9.304;2023-03-30T17:00:52;0.83;;;0.80;;
1533;SDS011;760;48.822;9.304;2023-03-30T17:03:24;0.60;;;0.60;;
1533;SDS011;760;48.822;9.304;2023-03-30T17:05:50;1.00;;;1.00;;
1533;SDS011;760;48.822;9.304;2023-03-30T17:08:22;1.07;;;0.93;;
1533;SDS011;760;48.822;9.304;2023-03-30T17:10:51;1.13;;;0.83;;
1533;SDS011;760;48.822;9.304;2023-03-30T17:13:17;1.23;;;1.13;;
1533;SDS011;760;48.822;9.304;2023-03-30T17:15:43;3.37;;;1.00;;
1533;SDS011;760;48.822;9.304;2023-03-30T17:18:13;0.70;;;0.70;;
1533;SDS011;760;48.822;9.304;2023-03-30T17:20:43;1.33;;;1.17;;
1533;SDS011;760;48.822;9.304;2023-03-30T17:23:12;1.10;;;1.00;;
1533;SDS011;760;48.822;9.304;2023-03-30T17:25:38;0.73;;;0.73;;
1533;SDS011;760;48.822;9.304;2023-03-30T17:28:04;1.80;;;1.03;;
1533;SDS011;760;48.822;9.304;2023-03-30T17:30:34;1.30;;;1.20;;
1533;SDS011;760;48.822;9.304;2023-03-30T17:33:04;2.47;;;1.60;;
1533;SDS011;760;48.822;9.304;2023-03-30T17:35:34;1.63;;;1.53;;
1533;SDS011;760;48.822;9.304;2023-03-30T17:38:02;3.17;;;1.80;;
1533;SDS011;760;48.822;9.304;2023-03-30T17:40:29;1.33;;;1.03;;
1533;SDS011;760;48.822;9.304;2023-03-30T17:42:55;3.60;;;1.33;;
1533;SDS011;760;48.822;9.304;2023-03-30T17:45:22;1.50;;;1.40;;
1533;SDS011;760;48.822;9.304;2023-03-30T17:47:49;1.80;;;1.50;;
1533;SDS011;760;48.822;9.304;2023-03-30T17:52:47;1.70;;;1.60;;
1533;SDS011;760;48.822;9.304;2023-03-30T17:55:13;2.90;;;1.77;;
1533;SDS011;760;48.822;9.304;2023-03-30T17:57:40;4.03;;;1.43;;
1533;SDS011;760;48.822;9.304;2023-03-30T18:00:06;1.27;;;1.17;;
1533;SDS011;760;48.822;9.304;2023-03-30T18:02:57;1.37;;;1.20;;
1533;SDS011;760;48.822;9.304;2023-03-30T18:05:25;1.93;;;1.10;;
1533;SDS011;760;48.822;9.304;2023-03-30T18:07:52;2.20;;;1.30;;
1533;SDS011;760;48.822;9.304;2023-03-30T18:10:19;1.70;;;1.60;;
1533;SDS011;760;48.822;9.304;2023-03-30T18:12:48;1.50;;;1.40;;
1533;SDS011;760;48.822;9.304;2023-03-30T18:15:15;2.30;;;1.13;;
1533;SDS011;760;48.822;9.304;2023-03-30T18:17:42;1.40;;;1.20;;
1533;SDS011;760;48.822;9.304;2023-03-30T18:20:19;4.70;;;1.17;;
1533;SDS011;760;48.822;9.304;2023-03-30T18:22:47;1.53;;;1.43;;
1533;SDS011;760;48.822;9.304;2023-03-30T18:25:13;3.03;;;1.47;;
1533;SDS011;760;48.822;9.304;2023-03-30T18:27:39;1.77;;;1.67;;
1533;SDS011;760;48.822;9.304;2023-03-30T18:30:21;1.35;;;1.35;;
1533;SDS011;760;48.822;9.304;2023-03-30T18:32:49;2.45;;;1.55;;
1533;SDS011;760;48.822;9.304;2023-03-30T18:35:15;1.40;;;1.30;;
1533;SDS011;760;48.822;9.304;2023-03-30T18:37:42;1.73;;;1.20;;
1533;SDS011;760;48.822;9.304;2023-03-30T18:42:49;5.60;;;1.33;;
1533;SDS011;760;48.822;9.304;2023-03-30T18:45:22;1.60;;;1.27;;
1533;SDS011;760;48.822;9.304;2023-03-30T18:47:56;1.20;;;1.00;;
1533;SDS011;760;48.822;9.304;2023-03-30T18:52:47;1.83;;;1.67;;
1533;SDS011;760;48.822;9.304;2023-03-30T18:55:14;1.37;;;1.27;;
1533;SDS011;760;48.822;9.304;2023-03-30T18:57:40;1.10;;;1.10;;
1533;SDS011;760;48.822;9.304;2023-03-30T19:00:11;1.35;;;1.10;;
1533;SDS011;760;48.822;9.304;2023-03-30T19:02:42;1.47;;;1.30;;
1533;SDS011;760;48.822;9.304;2023-03-30T19:05:08;1.50;;;1.37;;
1533;SDS011;760;48.822;9.304;2023-03-30T19:07:34;0.70;;;0.70;;
1533;SDS011;760;48.822;9.304;2023-03-30T19:09:59;1.80;;;1.20;;
1533;SDS011;760;48.822;9.304;2023-03-30T19:12:25;1.50;;;1.40;;
1533;SDS011;760;48.822;9.304;2023-03-30T19:14:50;1.37;;;0.90;;
1533;SDS011;760;48.822;9.304;2023-03-30T19:17:17;2.25;;;2.05;;
1533;SDS011;760;48.822;9.304;2023-03-30T19:19:42;2.37;;;1.53;;
1533;SDS011;760;48.822;9.304;2023-03-30T19:22:08;1.10;;;1.07;;
1533;SDS011;760;48.822;9.304;2023-03-30T19:24:34;2.08;;;1.77;;
1533;SDS011;760;48.822;9.304;2023-03-30T19:27:00;1.90;;;1.70;;
1533;SDS011;760;48.822;9.304;2023-03-30T19:29:28;2.80;;;1.70;;
1533;SDS011;760;48.822;9.304;2023-03-30T19:31:53;2.00;;;1.80;;
1533;SDS011;760;48.822;9.304;2023-03-30T19:34:22;4.35;;;3.15;;
1533;SDS011;760;48.822;9.304;2023-03-30T19:36:48;1.13;;;1.10;;
1533;SDS011;760;48.822;9.304;2023-03-30T19:39:14;1.77;;;1.40;;
1533;SDS011;760;48.822;9.304;2023-03-30T19:41:40;2.00;;;1.40;;
1533;SDS011;760;48.822;9.304;2023-03-30T19:44:06;1.20;;;1.10;;
1533;SDS011;760;48.822;9.304;2023-03-30T19:46:31;1.63;;;1.20;;
1533;SDS011;760;48.822;9.304;2023-03-30T19:48:58;1.40;;;1.30;;
1533;SDS011;760;48.822;9.304;2023-03-30T19:51:27;1.73;;;1.63;;
1533;SDS011;760;48.822;9.304;2023-03-30T19:53:52;3.60;;;1.33;;
1533;SDS011;760;48.822;9.304;2023-03-30T19:56:18;1.80;;;1.47;;
1533;SDS011;760;48.822;9.304;2023-03-30T19:58:44;2.30;;;1.80;;
1533;SDS011;760;48.822;9.304;2023-03-30T20:01:09;2.40;;;1.63;;
1533;SDS011;760;48.822;9.304;2023-03-30T20:03:35;2.50;;;1.20;;
1533;SDS011;760;48.822;9.304;2023-03-30T20:06:01;1.50;;;1.40;;
1533;SDS011;760;48.822;9.304;2023-03-30T20:08:26;1.60;;;1.50;;
1533;SDS011;760;48.822;9.304;2023-03-30T20:10:53;1.45;;;1.13;;
1533;SDS011;760;48.822;9.304;2023-03-30T20:13:19;1.23;;;1.10;;
1533;SDS011;760;48.822;9.304;2023-03-30T20:15:52;1.67;;;1.58;;
1533;SDS011;760;48.822;9.304;2023-03-30T20:18:19;1.05;;;1.05;;
1533;SDS011;760;48.822;9.304;2023-03-30T20:20:44;2.50;;;2.20;;
1533;SDS011;760;48.822;9.304;2023-03-30T20:23:10;2.00;;;1.57;;
1533;SDS011;760;48.822;9.304;2023-03-30T20:25:36;1.13;;;1.13;;
1533;SDS011;760;48.822;9.304;2023-03-30T20:28:02;1.00;;;1.00;;
1533;SDS011;760;48.822;9.304;2023-03-30T20:30:27;3.23;;;1.00;;
1533;SDS011;760;48.822;9.304;2023-03-30T20:32:53;1.73;;;1.63;;
1533;SDS011;760;48.822;9.304;2023-03-30T20:35:21;0.90;;;0.90;;
1533;SDS011;760;48.822;9.304;2023-03-30T20:37:49;2.38;;;1.67;;
1533;SDS011;760;48.822;9.304;2023-03-30T20:40:15;2.93;;;1.70;;
1533;SDS011;760;48.822;9.304;2023-03-30T20:42:40;1.80;;;1.47;;
1533;SDS011;760;48.822;9.304;2023-03-30T20:45:08;2.00;;;0.90;;
1533;SDS011;760;48.822;9.304;2023-03-30T20:47:35;1.45;;;1.35;;
1533;SDS011;760;48.822;9.304;2023-03-30T20:50:01;1.40;;;1.30;;
1533;SDS011;760;48.822;9.304;2023-03-30T20:52:28;3.67;;;1.77;;
1533;SDS011;760;48.822;9.304;2023-03-30T20:54:54;2.13;;;1.40;;
1533;SDS011;760;48.822;9.304;2023-03-30T20:57:20;3.27;;;1.00;;
1533;SDS011;760;48.822;9.304;2023-03-30T20:59:49;1.65;;;1.50;;
1533;SDS011;760;48.822;9.304;2023-03-30T21:02:16;2.47;;;1.70;;
1533;SDS011;760;48.822;9.304;2023-03-30T21:04:42;4.32;;;1.38;;
1533;SDS011;760;48.822;9.304;2023-03-30T21:07:09;1.30;;;1.30;;
1533;SDS011;760;48.822;9.304;2023-03-30T21:09:36;1.33;;;1.27;;
1533;SDS011;760;48.822;9.304;2023-03-30T21:12:02;2.05;;;1.58;;
1533;SDS011;760;48.822;9.304;2023-03-30T21:14:28;1.40;;;1.37;;
1533;SDS011;760;48.822;9.304;2023-03-30T21:16:54;1.40;;;1.30;;
1533;SDS011;760;48.822;9.304;2023-03-30T21:19:20;3.90;;;1.43;;
1533;SDS011;760;48.822;9.304;2023-03-30T21:21:45;2.07;;;1.87;;
1533;SDS011;760;48.822;9.304;2023-03-30T21:24:11;1.70;;;1.60;;
1533;SDS011;760;48.822;9.304;2023-03-30T21:26:37;2.60;;;1.50;;
1533;SDS011;760;48.822;9.304;2023-03-30T21:29:03;4.03;;;1.70;;
1533;SDS011;760;48.822;9.304;2023-03-30T21:31:29;1.67;;;1.30;;
1533;SDS011;760;48.822;9.304;2023-03-30T21:33:55;1.13;;;1.03;;
1533;SDS011;760;48.822;9.304;2023-03-30T21:36:21;1.23;;;0.90;;
1533;SDS011;760;48.822;9.304;2023-03-30T21:38:47;1.23;;;1.15;;
1533;SDS011;760;48.822;9.304;2023-03-30T21:41:13;2.03;;;1.60;;
1533;SDS011;760;48.822;9.304;2023-03-30T21:43:42;2.38;;;1.20;;
1533;SDS011;760;48.822;9.304;2023-03-30T21:46:10;4.82;;;1.20;;
1533;SDS011;760;48.822;9.304;2023-03-30T21:48:46;1.25;;;1.20;;
1533;SDS011;760;48.822;9.304;2023-03-30T21:51:14;1.35;;;1.25;;
1533;SDS011;760;48.822;9.304;2023-03-30T21:53:42;1.45;;;1.35;;
1533;SDS011;760;48.822;9.304;2023-03-30T21:56:10;1.67;;;1.15;;
1533;SDS011;760;48.822;9.304;2023-03-30T21:58:36;2.90;;;1.25;;
1533;SDS011;760;48.822;9.304;2023-03-30T22:01:03;1.05;;;1.02;;
1533;SDS011;760;48.822;9.304;2023-03-30T22:03:29;1.75;;;1.13;;
1533;SDS011;760;48.822;9.304;2023-03-30T22:06:02;1.30;;;1.30;;
1533;SDS011;760;48.822;9.304;2023-03-30T22:08:29;1.10;;;1.00;;
1533;SDS011;760;48.822;9.304;2023-03-30T22:10:55;1.40;;;1.30;;
1533;SDS011;760;48.822;9.304;2023-03-30T22:13:26;1.40;;;1.30;;
1533;SDS011;760;48.822;9.304;2023-03-30T22:16:12;0.80;;;0.80;;
1533;SDS011;760;48.822;9.304;2023-03-30T22:18:40;1.08;;;0.90;;